createdAt,value
2019-03-25T00:00:44.613Z,96.40
2019-03-25T00:03:12.985Z,96.50
2019-03-25T00:05:41.362Z,96.50
2019-03-25T00:08:09.882Z,96.60
2019-03-25T00:10:38.301Z,96.60
2019-03-25T00:13:06.714Z,96.60
2019-03-25T00:15:35.164Z,96.50
2019-03-25T00:18:04.110Z,96.30
2019-03-25T00:20:32.490Z,96.30
2019-03-25T00:23:00.946Z,96.20
2019-03-25T00:25:29.334Z,96.30
2019-03-25T00:27:57.686Z,96.20
2019-03-25T00:30:26.081Z,96.50
2019-03-25T00:32:54.552Z,96.10
2019-03-25T00:35:23.310Z,96.20
2019-03-25T00:37:51.754Z,96.00
2019-03-25T00:40:20.179Z,96.00
2019-03-25T00:42:48.538Z,95.90
2019-03-25T00:45:17.017Z,96.00
2019-03-25T00:47:45.415Z,96.00
2019-03-25T00:50:13.805Z,95.80
2019-03-25T00:52:42.177Z,95.90
2019-03-25T00:55:10.630Z,95.60
2019-03-25T00:57:39.017Z,95.70
2019-03-25T01:00:08.928Z,95.90
2019-03-25T01:02:37.319Z,95.80
2019-03-25T01:05:05.696Z,95.80
2019-03-25T01:07:34.115Z,95.70
2019-03-25T01:10:02.682Z,95.60
2019-03-25T01:12:31.115Z,95.70
2019-03-25T01:14:59.489Z,95.60
2019-03-25T01:17:27.870Z,95.70
2019-03-25T01:19:56.318Z,95.60
2019-03-25T01:22:24.678Z,95.60
2019-03-25T01:25:01.360Z,95.30
2019-03-25T01:27:23.246Z,95.40
2019-03-25T01:29:51.607Z,95.50
2019-03-25T01:32:20.096Z,95.60
2019-03-25T01:34:48.511Z,95.80
2019-03-25T01:37:17.066Z,95.90
2019-03-25T01:39:45.516Z,95.60
2019-03-25T01:42:13.891Z,95.80
2019-03-25T01:44:42.281Z,95.90
2019-03-25T01:47:10.717Z,95.80
2019-03-25T01:49:39.114Z,95.90
2019-03-25T01:52:07.477Z,96.00
2019-03-25T01:54:36.054Z,96.10
2019-03-25T01:57:04.504Z,96.00
2019-03-25T01:59:32.857Z,95.90
2019-03-25T02:02:01.246Z,95.80
2019-03-25T02:04:29.698Z,95.70
2019-03-25T02:06:58.094Z,95.80
2019-03-25T02:09:26.465Z,96.00
2019-03-25T02:11:54.825Z,96.00
2019-03-25T02:14:23.202Z,96.10
2019-03-25T02:16:51.647Z,96.00
2019-03-25T02:19:20.097Z,96.10
2019-03-25T02:21:48.461Z,96.00
2019-03-25T02:24:16.856Z,96.00
2019-03-25T02:26:45.236Z,96.10
2019-03-25T02:29:13.668Z,96.00
2019-03-25T02:31:42.062Z,95.90
2019-03-25T02:34:10.443Z,96.00
2019-03-25T02:36:38.796Z,96.20
2019-03-25T02:39:07.165Z,96.20
2019-03-25T02:41:35.599Z,96.40
2019-03-25T02:44:04.057Z,96.60
2019-03-25T02:46:32.500Z,96.90
2019-03-25T02:49:00.883Z,97.00
2019-03-25T02:51:30.014Z,97.10
2019-03-25T02:53:58.483Z,97.20
2019-03-25T02:56:26.988Z,97.10
2019-03-25T02:58:55.404Z,97.00
2019-03-25T03:01:23.846Z,97.20
2019-03-25T03:03:52.152Z,97.40
2019-03-25T03:06:20.632Z,97.50
2019-03-25T03:08:48.984Z,97.60
2019-03-25T03:11:17.423Z,97.90
2019-03-25T03:13:45.805Z,97.50
2019-03-25T03:16:14.118Z,97.60
2019-03-25T03:18:42.481Z,97.50
2019-03-25T03:21:10.911Z,97.60
2019-03-25T03:23:39.233Z,97.30
2019-03-25T03:26:07.673Z,97.30
2019-03-25T03:28:36.060Z,97.30
2019-03-25T03:31:04.510Z,97.40
2019-03-25T03:33:32.893Z,97.10
2019-03-25T03:36:01.326Z,97.20
2019-03-25T03:38:29.691Z,97.30
2019-03-25T03:40:58.200Z,97.40
2019-03-25T03:43:26.542Z,97.30
2019-03-25T03:45:55.002Z,97.40
2019-03-25T03:48:24.172Z,97.50
2019-03-25T03:50:52.615Z,97.60
2019-03-25T03:53:21.017Z,97.80
2019-03-25T03:55:49.508Z,97.70
2019-03-25T03:58:17.842Z,97.40
2019-03-25T04:00:46.214Z,97.60
2019-03-25T04:03:14.598Z,97.50
2019-03-25T04:05:42.968Z,97.30
2019-03-25T04:08:11.353Z,97.40
2019-03-25T04:10:39.720Z,97.20
2019-03-25T04:13:08.090Z,97.00
2019-03-25T04:15:36.568Z,97.00
2019-03-25T04:18:04.965Z,96.90
2019-03-25T04:20:33.311Z,96.80
2019-03-25T04:23:01.672Z,97.10
2019-03-25T04:25:30.170Z,97.70
2019-03-25T04:27:58.525Z,97.20
2019-03-25T04:30:26.893Z,97.20
2019-03-25T04:32:55.282Z,97.40
2019-03-25T04:35:23.710Z,97.40
2019-03-25T04:37:52.128Z,97.30
2019-03-25T04:40:20.578Z,97.10
2019-03-25T04:42:48.949Z,97.30
2019-03-25T04:45:18.047Z,97.30
2019-03-25T04:47:46.481Z,97.30
2019-03-25T04:50:14.858Z,97.30
2019-03-25T04:52:43.213Z,97.50
2019-03-25T04:55:11.541Z,97.70
2019-03-25T04:57:39.895Z,97.60
2019-03-25T05:00:09.033Z,97.60
2019-03-25T05:02:37.398Z,97.70
2019-03-25T05:05:07.893Z,97.60
2019-03-25T05:07:36.277Z,97.70
2019-03-25T05:10:06.662Z,97.90
2019-03-25T05:12:35.119Z,98.10
2019-03-25T05:15:04.470Z,98.10
2019-03-25T05:17:32.886Z,98.00
2019-03-25T05:20:01.190Z,97.90
2019-03-25T05:22:29.693Z,97.90
2019-03-25T05:24:58.046Z,99.90
2019-03-25T05:27:26.415Z,99.90
2019-03-25T05:29:54.720Z,99.50
2019-03-25T05:32:23.018Z,99.10
2019-03-25T05:34:51.401Z,99.10
2019-03-25T05:37:19.830Z,99.20
2019-03-25T05:39:48.147Z,99.00
2019-03-25T05:42:16.587Z,99.30
2019-03-25T05:44:45.059Z,99.40
2019-03-25T05:47:13.435Z,99.30
2019-03-25T05:49:41.865Z,99.10
2019-03-25T05:52:10.265Z,99.00
2019-03-25T05:54:38.566Z,99.10
2019-03-25T05:57:06.957Z,98.60
2019-03-25T05:59:35.319Z,98.10
2019-03-25T06:02:03.766Z,98.10
2019-03-25T06:04:33.138Z,98.20
2019-03-25T06:07:01.452Z,98.10
2019-03-25T06:09:29.816Z,98.30
2019-03-25T06:11:58.219Z,98.20
2019-03-25T06:14:26.620Z,98.10
2019-03-25T06:16:55.025Z,98.20
2019-03-25T06:19:23.406Z,98.10
2019-03-25T06:21:51.849Z,98.00
2019-03-25T06:24:20.294Z,98.00
2019-03-25T06:26:48.687Z,98.10
2019-03-25T06:29:17.172Z,98.30
2019-03-25T06:31:45.531Z,98.00
2019-03-25T06:34:13.907Z,97.70
2019-03-25T06:36:42.301Z,97.50
2019-03-25T06:39:10.665Z,97.10
2019-03-25T06:41:39.065Z,97.00
2019-03-25T06:44:08.011Z,97.10
2019-03-25T06:46:36.441Z,97.00
2019-03-25T06:49:04.823Z,97.00
2019-03-25T06:51:33.369Z,96.80
2019-03-25T06:54:01.737Z,97.00
2019-03-25T06:56:30.117Z,96.90
2019-03-25T06:58:58.574Z,96.90
2019-03-25T07:01:27.018Z,96.40
2019-03-25T07:03:55.380Z,95.90
2019-03-25T07:06:23.758Z,95.90
2019-03-25T07:08:52.154Z,96.10
2019-03-25T07:11:20.450Z,96.10
2019-03-25T07:13:48.760Z,96.20
2019-03-25T07:16:17.124Z,96.10
2019-03-25T07:18:45.518Z,96.10
2019-03-25T07:21:13.881Z,96.00
2019-03-25T07:23:42.269Z,96.30
2019-03-25T07:26:10.649Z,96.00
2019-03-25T07:28:39.029Z,95.60
2019-03-25T07:31:07.411Z,95.20
2019-03-25T07:33:35.781Z,94.90
2019-03-25T07:36:04.177Z,94.60
2019-03-25T07:38:32.565Z,94.70
2019-03-25T07:41:00.929Z,94.20
2019-03-25T07:43:29.297Z,93.80
2019-03-25T07:45:57.758Z,94.10
2019-03-25T07:48:26.142Z,94.10
2019-03-25T07:50:54.526Z,93.70
2019-03-25T07:53:22.954Z,93.90
2019-03-25T07:55:51.289Z,93.50
2019-03-25T07:58:19.921Z,93.70
2019-03-25T08:00:48.346Z,93.50
2019-03-25T08:03:16.704Z,93.20
2019-03-25T08:05:45.080Z,93.20
2019-03-25T08:08:13.540Z,93.40
2019-03-25T08:10:41.907Z,93.30
2019-03-25T08:13:10.369Z,93.10
2019-03-25T08:15:38.966Z,92.90
2019-03-25T08:18:07.441Z,93.10
2019-03-25T08:20:35.743Z,92.90
2019-03-25T08:23:04.125Z,92.20
2019-03-25T08:25:32.491Z,92.10
2019-03-25T08:28:00.887Z,91.60
2019-03-25T08:30:29.313Z,91.60
2019-03-25T08:32:57.709Z,91.60
2019-03-25T08:35:26.248Z,91.50
2019-03-25T08:37:54.645Z,92.20
2019-03-25T08:40:23.203Z,92.00
2019-03-25T08:42:51.570Z,92.50
2019-03-25T08:45:20.023Z,91.90
2019-03-25T08:47:48.406Z,91.80
2019-03-25T08:50:16.796Z,91.20
2019-03-25T08:52:45.184Z,90.90
2019-03-25T08:55:14.037Z,90.70
2019-03-25T08:57:42.412Z,90.30
2019-03-25T09:00:11.122Z,90.40
2019-03-25T09:02:39.562Z,90.00
2019-03-25T09:05:08.286Z,90.30
2019-03-25T09:07:36.887Z,90.90
2019-03-25T09:10:10.092Z,90.40
2019-03-25T09:12:38.425Z,88.40
2019-03-25T09:15:10.075Z,86.50
2019-03-25T09:17:38.447Z,86.90
2019-03-25T09:20:08.009Z,86.80
2019-03-25T09:22:36.366Z,86.80
2019-03-25T09:25:07.197Z,88.00
2019-03-25T09:27:35.598Z,89.00
2019-03-25T09:30:04.791Z,88.10
2019-03-25T09:32:33.173Z,87.00
2019-03-25T09:35:01.580Z,87.50
2019-03-25T09:37:29.961Z,88.20
2019-03-25T09:39:58.393Z,88.00
2019-03-25T09:42:26.870Z,87.60
2019-03-25T09:44:55.307Z,87.40
2019-03-25T09:47:23.672Z,87.90
2019-03-25T09:49:52.096Z,87.00
2019-03-25T09:52:20.482Z,85.40
2019-03-25T09:54:48.844Z,85.70
2019-03-25T09:57:19.477Z,85.30
2019-03-25T09:59:47.286Z,84.20
2019-03-25T10:02:16.122Z,83.70
2019-03-25T10:04:44.596Z,83.40
2019-03-25T10:07:16.239Z,82.40
2019-03-25T10:09:43.959Z,82.50
2019-03-25T10:12:12.418Z,83.00
2019-03-25T10:14:40.731Z,82.10
2019-03-25T10:17:09.142Z,81.70
2019-03-25T10:21:58.785Z,82.20
2019-03-25T10:24:28.075Z,83.80
2019-03-25T10:26:56.617Z,83.40
2019-03-25T10:29:25.039Z,83.70
2019-03-25T10:31:53.428Z,83.80
2019-03-25T10:34:21.874Z,82.70
2019-03-25T10:36:50.926Z,82.40
2019-03-25T10:39:19.327Z,81.80
2019-03-25T10:41:47.706Z,80.60
2019-03-25T10:51:40.626Z,76.50
2019-03-25T10:54:08.992Z,72.50
2019-03-25T10:56:37.378Z,67.60
2019-03-25T10:59:05.818Z,66.10
2019-03-25T11:01:34.275Z,64.60
2019-03-25T11:04:02.666Z,59.60
2019-03-25T11:06:31.187Z,61.10
2019-03-25T11:08:59.654Z,59.00
2019-03-25T11:11:28.047Z,57.90
2019-03-25T11:13:56.526Z,56.20
2019-03-25T11:16:25.145Z,57.30
2019-03-25T11:18:53.553Z,56.80
2019-03-25T11:21:21.987Z,56.40
2019-03-25T11:23:50.373Z,58.70
2019-03-25T11:26:18.756Z,59.40
2019-03-25T11:28:47.157Z,61.20
2019-03-25T11:31:15.538Z,61.10
2019-03-25T11:33:43.911Z,61.80
2019-03-25T11:36:12.305Z,65.10
2019-03-25T11:38:40.639Z,68.90
2019-03-25T11:41:09.001Z,71.00
2019-03-25T11:43:37.481Z,71.20
2019-03-25T12:05:51.350Z,67.90
2019-03-25T12:08:19.738Z,65.40
2019-03-25T12:10:48.132Z,61.20
2019-03-25T12:13:16.564Z,60.60
2019-03-25T12:15:44.949Z,61.90
2019-03-25T12:18:13.275Z,63.70
2019-03-25T12:20:41.720Z,64.30
2019-03-25T12:23:10.129Z,64.60
2019-03-25T12:25:38.485Z,61.60
2019-03-25T22:42:29.190Z,67.50
2019-03-25T22:44:57.566Z,68.30
2019-03-25T22:47:25.954Z,68.60
2019-03-25T22:49:54.310Z,69.20
2019-03-25T22:54:51.778Z,69.70
2019-03-25T22:57:20.140Z,70.60
2019-03-25T22:59:48.522Z,71.20
2019-03-25T23:02:16.905Z,71.30
2019-03-25T23:04:45.271Z,71.40
2019-03-25T23:07:13.686Z,71.90
2019-03-25T23:09:42.075Z,72.80
2019-03-25T23:24:31.501Z,76.70
2019-03-25T23:26:59.966Z,77.60
2019-03-25T23:29:31.204Z,78.00
2019-03-25T23:31:58.985Z,78.90
2019-03-25T23:34:27.361Z,79.60
2019-03-25T23:36:55.767Z,80.10
2019-03-25T23:41:53.730Z,80.80
2019-03-25T23:44:22.182Z,82.40
2019-03-25T23:46:50.582Z,83.10
2019-03-25T23:49:19.044Z,83.80
2019-03-25T23:51:47.388Z,84.10
2019-03-25T23:54:16.082Z,84.50
2019-03-25T23:56:44.514Z,84.90
2019-03-25T23:59:12.862Z,85.80
